createdAt,value
2022-10-24T00:02:49.761Z,10.40
2022-10-24T00:07:01.623Z,10.30
2022-10-24T00:11:14.655Z,9.90
2022-10-24T00:15:22.985Z,10.40
2022-10-24T00:19:31.611Z,11.30
2022-10-24T00:23:40.057Z,11.90
2022-10-24T00:27:47.624Z,12.00
2022-10-24T00:31:55.850Z,9.00
2022-10-24T00:36:03.464Z,10.80
2022-10-24T00:40:13.499Z,10.00
2022-10-24T00:44:24.388Z,10.30
2022-10-24T00:48:35.990Z,10.30
2022-10-24T00:52:47.505Z,10.70
2022-10-24T00:57:00.865Z,10.80
2022-10-24T01:01:09.631Z,10.80
2022-10-24T01:05:19.352Z,11.80
2022-10-24T01:09:50.896Z,10.60
2022-10-24T01:14:02.020Z,10.50
2022-10-24T01:18:14.270Z,10.60
2022-10-24T01:22:25.061Z,12.30
2022-10-24T01:26:47.256Z,10.50
2022-10-24T01:31:01.107Z,11.00
2022-10-24T01:35:16.974Z,12.10
2022-10-24T01:39:25.333Z,8.80
2022-10-24T01:43:36.394Z,10.30
2022-10-24T01:47:48.119Z,8.90
2022-10-24T01:51:58.592Z,8.90
2022-10-24T01:56:07.483Z,9.80
2022-10-24T02:00:22.687Z,9.80
2022-10-24T02:04:33.696Z,10.30
2022-10-24T02:08:46.151Z,10.10
2022-10-24T02:12:57.313Z,9.10
2022-10-24T02:17:05.673Z,10.40
2022-10-24T02:21:25.612Z,9.10
2022-10-24T02:25:38.196Z,8.90
2022-10-24T02:29:52.476Z,8.40
2022-10-24T02:34:00.805Z,6.80
2022-10-24T02:38:16.402Z,6.70
2022-10-24T02:42:25.748Z,6.90
2022-10-24T02:46:33.628Z,8.20
2022-10-24T02:50:43.262Z,6.80
2022-10-24T02:54:51.563Z,7.40
2022-10-24T02:58:59.668Z,9.00
2022-10-24T03:03:07.626Z,6.80
2022-10-24T03:07:15.161Z,6.90
2022-10-24T03:11:23.121Z,7.40
2022-10-24T03:15:30.923Z,7.40
2022-10-24T03:19:39.166Z,7.40
2022-10-24T03:23:47.240Z,10.30
2022-10-24T03:27:55.054Z,7.30
2022-10-24T03:32:03.065Z,7.30
2022-10-24T03:36:11.290Z,9.00
2022-10-24T03:40:18.926Z,8.30
2022-10-24T03:44:27.545Z,9.80
2022-10-24T03:48:35.391Z,8.30
2022-10-24T03:52:45.505Z,8.40
2022-10-24T03:56:53.675Z,10.20
2022-10-24T04:01:01.628Z,9.50
2022-10-24T04:05:11.133Z,8.30
2022-10-24T04:09:19.247Z,8.20
2022-10-24T04:13:27.664Z,7.90
2022-10-24T04:17:35.620Z,7.80
2022-10-24T04:21:44.096Z,7.60
2022-10-24T04:25:52.344Z,7.90
2022-10-24T04:30:00.197Z,7.40
2022-10-24T04:34:08.165Z,7.20
2022-10-24T04:38:15.764Z,8.20
2022-10-24T04:42:26.217Z,9.00
2022-10-24T04:46:34.500Z,8.30
2022-10-24T04:50:44.611Z,8.50
2022-10-24T04:54:52.300Z,8.30
2022-10-24T04:59:00.208Z,8.90
2022-10-24T05:03:07.910Z,8.80
2022-10-24T05:07:16.150Z,8.00
2022-10-24T05:11:24.144Z,7.50
2022-10-24T05:15:32.200Z,7.90
2022-10-24T05:19:40.247Z,7.10
2022-10-24T05:23:48.373Z,9.10
2022-10-24T05:27:57.119Z,9.10
2022-10-24T05:32:05.013Z,8.30
2022-10-24T05:36:13.760Z,9.20
2022-10-24T05:40:21.593Z,8.50
2022-10-24T05:44:29.457Z,9.00
2022-10-24T05:48:37.444Z,9.90
2022-10-24T05:52:47.114Z,10.60
2022-10-24T05:56:56.175Z,8.60
2022-10-24T06:01:05.053Z,9.40
2022-10-24T06:05:14.236Z,9.60
2022-10-24T06:09:22.555Z,10.30
2022-10-24T06:13:35.183Z,8.30
2022-10-24T06:17:44.862Z,8.20
2022-10-24T06:21:52.614Z,10.90
2022-10-24T06:26:01.381Z,10.60
2022-10-24T06:30:12.257Z,9.90
2022-10-24T06:38:33.944Z,12.50
2022-10-24T06:42:43.340Z,10.10
2022-10-24T06:46:51.080Z,10.90
2022-10-24T06:51:00.416Z,11.60
2022-10-24T06:55:09.770Z,10.20
2022-10-24T06:59:18.908Z,11.70
2022-10-24T07:03:27.886Z,10.60
2022-10-24T07:07:35.828Z,11.20
2022-10-24T07:11:43.378Z,10.30
2022-10-24T07:15:55.172Z,9.60
2022-10-24T07:20:04.382Z,9.40
2022-10-24T07:24:14.803Z,9.70
2022-10-24T07:28:23.610Z,8.20
2022-10-24T07:32:30.922Z,9.00
2022-10-24T07:36:41.543Z,9.50
2022-10-24T07:40:54.432Z,11.10
2022-10-24T07:45:02.819Z,10.60
2022-10-24T07:49:11.502Z,10.20
2022-10-24T07:53:19.375Z,9.90
2022-10-24T07:57:27.639Z,8.40
2022-10-24T08:01:35.798Z,9.40
2022-10-24T08:05:44.093Z,9.90
2022-10-24T08:09:52.353Z,10.90
2022-10-24T08:14:02.788Z,7.20
2022-10-24T08:18:10.813Z,8.90
2022-10-24T08:22:18.991Z,9.40
2022-10-24T08:26:28.390Z,8.90
2022-10-24T08:30:36.110Z,7.00
2022-10-24T08:34:44.039Z,7.60
2022-10-24T08:38:51.929Z,7.30
2022-10-24T08:42:59.451Z,6.40
2022-10-24T08:47:10.564Z,8.60
2022-10-24T08:51:31.055Z,8.00
2022-10-24T08:55:50.236Z,10.90
2022-10-24T09:00:01.379Z,8.90
2022-10-24T09:04:13.256Z,8.10
2022-10-24T09:08:26.415Z,7.70
2022-10-24T09:12:40.433Z,9.00
2022-10-24T09:16:50.132Z,9.00
2022-10-24T09:20:58.127Z,7.10
2022-10-24T09:25:08.244Z,7.80
2022-10-24T09:29:18.535Z,8.90
2022-10-24T09:33:30.521Z,7.30
2022-10-24T09:37:47.120Z,6.40
2022-10-24T09:41:55.640Z,10.00
2022-10-24T09:46:09.043Z,8.60
2022-10-24T09:50:24.799Z,8.10
2022-10-24T09:54:35.386Z,8.60
2022-10-24T09:58:43.969Z,8.10
2022-10-24T10:03:03.109Z,9.20
2022-10-24T10:07:14.627Z,7.90
2022-10-24T10:11:30.904Z,10.20
2022-10-24T10:15:41.460Z,10.20
2022-10-24T10:19:49.555Z,8.50
2022-10-24T10:24:02.417Z,8.60
2022-10-24T10:28:23.360Z,7.60
2022-10-24T10:32:35.004Z,10.20
2022-10-24T10:36:48.270Z,8.00
2022-10-24T10:41:00.849Z,6.90
2022-10-24T10:45:19.638Z,9.10
2022-10-24T10:49:31.631Z,7.40
2022-10-24T10:53:43.886Z,8.50
2022-10-24T10:57:55.484Z,7.60
2022-10-24T11:02:10.386Z,7.80
2022-10-24T11:06:28.564Z,9.60
2022-10-24T11:10:39.606Z,7.10
2022-10-24T11:14:50.140Z,10.30
2022-10-24T11:19:01.314Z,7.90
2022-10-24T11:23:15.599Z,9.30
2022-10-24T11:27:27.837Z,9.90
2022-10-24T11:31:38.850Z,8.60
2022-10-24T11:36:01.662Z,8.80
2022-10-24T11:40:14.790Z,9.70
2022-10-24T11:44:38.115Z,8.50
2022-10-24T11:53:06.584Z,10.70
2022-10-24T11:57:17.130Z,9.20
2022-10-24T12:01:50.469Z,11.10
2022-10-24T12:06:21.737Z,8.70
2022-10-24T12:10:42.212Z,9.30
2022-10-24T12:15:00.921Z,7.50
2022-10-24T12:19:12.276Z,9.90
2022-10-24T12:23:24.904Z,9.30
2022-10-24T12:27:36.307Z,10.00
2022-10-24T12:31:44.193Z,9.90
2022-10-24T12:35:56.689Z,8.90
2022-10-24T12:40:41.802Z,10.80
2022-10-24T12:44:51.443Z,10.30
2022-10-24T12:49:18.385Z,9.60
2022-10-24T12:53:43.972Z,8.00
2022-10-24T12:57:51.793Z,8.60
2022-10-24T13:02:22.547Z,8.70
2022-10-24T13:06:34.335Z,6.70
2022-10-24T13:10:47.676Z,10.50
2022-10-24T13:15:18.838Z,9.20
2022-10-24T13:19:27.341Z,8.70
2022-10-24T13:23:35.974Z,9.00
2022-10-24T13:27:43.973Z,12.40
2022-10-24T13:31:56.306Z,10.90
2022-10-24T13:36:16.398Z,8.50
2022-10-24T13:40:30.639Z,9.80
2022-10-24T13:44:46.263Z,10.20
2022-10-24T13:48:54.428Z,9.90
2022-10-24T13:53:04.894Z,9.00
2022-10-24T13:57:30.909Z,10.00
2022-10-24T14:05:51.701Z,12.90
2022-10-24T14:10:02.066Z,9.80
2022-10-24T14:14:23.939Z,10.30
2022-10-24T14:18:33.243Z,13.20
2022-10-24T14:22:42.853Z,10.80
2022-10-24T14:26:53.512Z,11.40
2022-10-24T14:31:03.119Z,10.80
2022-10-24T14:35:15.603Z,9.10
2022-10-24T14:39:25.201Z,9.70
2022-10-24T14:43:34.012Z,9.00
2022-10-24T14:47:46.041Z,12.00
2022-10-24T14:51:56.427Z,11.70
2022-10-24T14:56:04.106Z,8.90
2022-10-24T15:00:23.807Z,10.10
2022-10-24T15:04:40.400Z,14.00
2022-10-24T15:08:51.331Z,12.00
2022-10-24T15:13:05.051Z,12.20
2022-10-24T15:17:32.491Z,9.60
2022-10-24T15:21:44.863Z,15.50
2022-10-24T15:26:06.052Z,9.90
2022-10-24T15:30:17.609Z,12.00
2022-10-24T15:34:28.193Z,16.70
2022-10-24T15:38:40.486Z,17.20
2022-10-24T15:42:51.530Z,24.40
2022-10-24T15:46:59.753Z,10.70
2022-10-24T15:51:07.968Z,12.80
2022-10-24T15:55:20.004Z,9.80
2022-10-24T15:59:27.807Z,11.80
2022-10-24T16:03:37.480Z,20.80
2022-10-24T16:07:45.925Z,17.20
2022-10-24T16:11:54.812Z,14.70
2022-10-24T16:16:02.898Z,18.70
2022-10-24T16:20:12.151Z,18.20
2022-10-24T16:24:19.938Z,17.70
2022-10-24T16:28:29.228Z,15.70
2022-10-24T16:32:37.513Z,15.10
2022-10-24T16:36:45.914Z,14.40
2022-10-24T16:40:56.016Z,10.70
2022-10-24T16:45:05.578Z,15.00
2022-10-24T16:49:13.439Z,13.80
2022-10-24T16:53:21.895Z,12.40
2022-10-24T16:57:37.053Z,12.50
2022-10-24T17:01:45.179Z,9.70
2022-10-24T17:05:53.036Z,13.60
2022-10-24T17:10:01.225Z,13.00
2022-10-24T17:14:10.752Z,11.60
2022-10-24T17:18:20.400Z,11.40
2022-10-24T17:22:28.460Z,11.60
2022-10-24T17:27:00.885Z,9.70
2022-10-24T17:31:09.501Z,10.20
2022-10-24T17:35:20.849Z,10.80
2022-10-24T17:39:32.442Z,10.50
2022-10-24T17:43:41.989Z,13.10
2022-10-24T17:47:50.193Z,10.90
2022-10-24T17:51:58.338Z,17.60
2022-10-24T17:56:07.006Z,31.80
2022-10-24T18:00:16.936Z,28.30
2022-10-24T18:04:24.436Z,18.10
2022-10-24T18:08:32.776Z,13.30
2022-10-24T18:12:42.014Z,11.70
2022-10-24T18:16:50.187Z,12.50
2022-10-24T18:21:08.939Z,16.10
2022-10-24T18:25:21.774Z,15.60
2022-10-24T18:29:31.382Z,13.60
2022-10-24T18:33:42.213Z,14.40
2022-10-24T18:37:49.985Z,12.60
2022-10-24T18:42:03.040Z,12.50
2022-10-24T18:46:14.083Z,13.70
2022-10-24T18:50:24.223Z,10.80
2022-10-24T18:54:33.011Z,10.50
2022-10-24T18:58:41.685Z,10.60
2022-10-24T19:03:05.587Z,11.80
2022-10-24T19:07:13.662Z,16.10
2022-10-24T19:11:24.572Z,23.00
2022-10-24T19:15:33.211Z,20.70
2022-10-24T19:19:41.798Z,15.60
2022-10-24T19:23:49.609Z,16.50
2022-10-24T19:27:57.820Z,13.70
2022-10-24T19:32:09.878Z,11.70
2022-10-24T19:36:19.364Z,12.40
2022-10-24T19:40:27.777Z,16.50
2022-10-24T19:44:35.571Z,13.40
2022-10-24T19:48:45.767Z,15.60
2022-10-24T19:52:58.869Z,15.70
2022-10-24T19:57:09.847Z,16.00
2022-10-24T20:01:26.087Z,18.40
2022-10-24T20:05:36.551Z,18.70
2022-10-24T20:09:50.529Z,20.60
2022-10-24T20:13:58.768Z,18.10
2022-10-24T20:18:06.433Z,19.40
2022-10-24T20:22:14.449Z,17.80
2022-10-24T20:26:24.060Z,14.10
2022-10-24T20:30:32.416Z,14.60
2022-10-24T20:34:40.230Z,12.40
2022-10-24T20:38:56.704Z,13.70
2022-10-24T20:43:07.334Z,15.50
2022-10-24T20:47:15.185Z,14.10
2022-10-24T20:51:24.165Z,15.30
2022-10-24T20:55:43.860Z,11.60
2022-10-24T20:59:52.841Z,14.20
2022-10-24T21:04:01.532Z,9.40
2022-10-24T21:08:09.699Z,8.30
2022-10-24T21:12:17.615Z,9.20
2022-10-24T21:16:26.854Z,9.20
2022-10-24T21:20:35.014Z,9.80
2022-10-24T21:24:42.902Z,8.90
2022-10-24T21:28:54.016Z,6.70
2022-10-24T21:33:10.980Z,8.30
2022-10-24T21:37:18.660Z,8.10
2022-10-24T21:41:26.846Z,8.30
2022-10-24T21:45:35.625Z,7.80
2022-10-24T21:49:44.000Z,7.90
2022-10-24T21:53:53.242Z,7.40
2022-10-24T21:58:01.365Z,9.30
2022-10-24T22:02:09.977Z,5.80
2022-10-24T22:06:19.237Z,17.40
2022-10-24T22:10:27.052Z,10.50
2022-10-24T22:14:36.280Z,8.10
2022-10-24T22:18:45.094Z,8.70
2022-10-24T22:22:53.171Z,10.60
2022-10-24T22:27:00.857Z,10.00
2022-10-24T22:31:10.666Z,8.70
2022-10-24T22:35:20.719Z,9.60
2022-10-24T22:39:31.016Z,8.70
2022-10-24T22:43:40.062Z,8.50
2022-10-24T22:58:58.264Z,9.40
2022-10-24T23:03:14.137Z,11.30
2022-10-24T23:07:27.636Z,9.50
2022-10-24T23:11:37.278Z,9.80
2022-10-24T23:15:45.761Z,8.60
2022-10-24T23:19:55.638Z,9.10
2022-10-24T23:24:04.481Z,8.70
2022-10-24T23:28:19.843Z,9.50
2022-10-24T23:32:30.155Z,8.90
2022-10-24T23:36:38.929Z,11.20
2022-10-24T23:40:48.111Z,9.70
2022-10-24T23:44:56.804Z,7.90
2022-10-24T23:49:22.368Z,12.10
2022-10-24T23:53:36.515Z,8.80
2022-10-24T23:57:45.278Z,11.20
